Time;durP1;ratioP1;P1;durP2;ratioP2;P2;SDS_P1;SDS_P2;PMS_P1;PMS_P2;Temp;Humidity;BMP_temperature;BMP_pressure;BME280_temperature;BME280_humidity;BME280_pressure;Samples;Min_cycle;Max_cycle;Signal;HPM_P1;HPM_P2
2021/08/12 00:01:49;;;;;;;11.60;8.47;;;18.60;94.90;;;;;;5074918;28;20436;-67
2021/08/12 00:04:21;;;;;;;9.53;8.50;;;18.60;94.90;;;;;;5074742;28;20524;-67
2021/08/12 00:06:48;;;;;;;11.63;9.57;;;18.60;94.80;;;;;;5075361;28;20467;-67
2021/08/12 00:09:15;;;;;;;16.87;8.27;;;18.60;94.50;;;;;;5074544;28;20467;-67
2021/08/12 00:11:49;;;;;;;9.70;8.67;;;18.60;94.50;;;;;;5075298;28;20782;-67
2021/08/12 00:14:18;;;;;;;10.40;8.23;;;18.60;94.40;;;;;;5073746;28;20563;-67
2021/08/12 00:16:47;;;;;;;8.60;7.27;;;18.60;94.30;;;;;;5074888;28;20432;-67
2021/08/12 00:19:14;;;;;;;11.07;7.70;;;18.50;94.40;;;;;;5074163;28;20436;-67
2021/08/12 00:21:43;;;;;;;9.20;7.40;;;18.40;94.80;;;;;;5074888;28;20471;-67
2021/08/12 00:24:10;;;;;;;12.40;7.87;;;18.40;94.60;;;;;;5074267;28;20515;-68
2021/08/12 00:26:37;;;;;;;10.53;8.10;;;18.40;94.60;;;;;;5074702;28;20499;-67
2021/08/12 00:29:05;;;;;;;8.50;7.60;;;18.30;94.90;;;;;;5074055;28;20429;-67
2021/08/12 00:31:35;;;;;;;9.80;8.20;;;18.30;95.10;;;;;;5074094;28;20534;-67
2021/08/12 00:34:02;;;;;;;10.00;8.40;;;18.30;95.10;;;;;;5074265;28;20559;-67
2021/08/12 00:36:34;;;;;;;8.43;7.23;;;18.30;95.20;;;;;;5074740;28;20444;-67
2021/08/12 00:39:06;;;;;;;9.67;7.63;;;18.30;95.10;;;;;;5073982;28;20829;-67
2021/08/12 00:41:36;;;;;;;7.60;6.20;;;18.30;95.10;;;;;;5074660;28;20467;-67
2021/08/12 00:44:10;;;;;;;10.43;6.97;;;18.20;94.90;;;;;;5073755;28;20436;-67
2021/08/12 00:46:40;;;;;;;7.87;6.90;;;18.20;94.90;;;;;;5074466;28;20476;-67
2021/08/12 00:49:09;;;;;;;7.50;6.70;;;18.10;95.00;;;;;;5074253;28;20468;-67
2021/08/12 00:51:38;;;;;;;9.07;6.67;;;18.10;94.90;;;;;;5074314;28;20467;-68
2021/08/12 00:54:12;;;;;;;8.77;6.97;;;18.10;95.00;;;;;;5073898;28;20566;-67
2021/08/12 00:56:47;;;;;;;7.80;6.70;;;18.10;94.90;;;;;;5074694;28;20487;-67
2021/08/12 00:59:18;;;;;;;8.87;7.63;;;18.10;94.90;;;;;;5073770;28;20479;-66
2021/08/12 01:01:50;;;;;;;8.63;7.43;;;18.00;94.90;;;;;;5074287;28;20464;-67
2021/08/12 01:04:19;;;;;;;9.33;6.97;;;18.00;94.90;;;;;;5073673;28;20438;-67
2021/08/12 01:07:00;;;;;;;13.17;6.90;;;18.00;94.90;;;;;;5074019;28;20523;-67
2021/08/12 01:09:39;;;;;;;8.10;7.27;;;18.00;95.20;;;;;;5053950;28;20499;-67
2021/08/12 01:12:12;;;;;;;10.07;7.40;;;18.00;95.30;;;;;;5062121;28;20435;-67
2021/08/12 01:14:52;;;;;;;10.23;7.33;;;18.00;95.40;;;;;;5073903;28;20575;-67
2021/08/12 01:17:24;;;;;;;10.27;8.37;;;18.00;95.50;;;;;;5073391;28;20471;-66
2021/08/12 01:20:30;;;;;;;9.00;7.13;;;17.90;95.30;;;;;;5073853;28;20792;-68
2021/08/12 01:22:58;;;;;;;8.77;6.67;;;17.90;95.00;;;;;;5070642;28;21006;-67
2021/08/12 01:25:33;;;;;;;7.93;6.37;;;17.80;94.70;;;;;;5072604;28;20470;-67
2021/08/12 01:28:05;;;;;;;8.80;7.23;;;17.80;94.80;;;;;;5073025;28;20499;-67
2021/08/12 01:30:45;;;;;;;7.87;6.07;;;17.80;94.90;;;;;;5073696;28;20854;-67
2021/08/12 01:33:20;;;;;;;10.10;6.63;;;17.80;95.00;;;;;;5073060;28;20888;-67
2021/08/12 01:35:49;;;;;;;8.17;7.37;;;17.70;94.90;;;;;;5073442;28;20562;-67
2021/08/12 01:38:22;;;;;;;8.03;7.23;;;17.70;94.90;;;;;;5072066;28;20436;-67
2021/08/12 01:40:52;;;;;;;9.40;6.90;;;17.70;94.60;;;;;;5073381;28;20929;-67
2021/08/12 01:43:22;;;;;;;7.60;6.57;;;17.60;94.90;;;;;;5072160;28;20486;-67
2021/08/12 01:45:52;;;;;;;9.60;6.60;;;17.60;94.90;;;;;;5073298;28;20436;-67
2021/08/12 01:48:26;;;;;;;10.80;6.53;;;17.60;94.70;;;;;;5072841;28;20502;-67
2021/08/12 01:50:56;;;;;;;8.67;7.77;;;17.50;95.00;;;;;;5073169;28;20431;-67
2021/08/12 01:53:27;;;;;;;10.77;7.57;;;17.50;95.20;;;;;;5072899;28;20448;-67
2021/08/12 01:55:56;;;;;;;9.00;6.77;;;17.40;95.80;;;;;;5073194;28;20538;-67
2021/08/12 01:58:28;;;;;;;8.43;6.90;;;17.40;96.20;;;;;;5072644;28;20532;-67
2021/08/12 02:00:56;;;;;;;8.60;6.80;;;17.40;96.10;;;;;;5071128;28;20486;-67
2021/08/12 02:03:25;;;;;;;7.77;6.03;;;17.40;96.00;;;;;;5072963;28;21021;-66
2021/08/12 02:05:54;;;;;;;7.33;6.27;;;17.40;96.10;;;;;;5071926;28;20435;-67
2021/08/12 02:08:22;;;;;;;7.87;7.07;;;17.30;96.10;;;;;;5072846;28;20930;-67
2021/08/12 02:10:50;;;;;;;7.67;6.43;;;17.20;96.20;;;;;;5071756;28;20475;-67
2021/08/12 02:13:17;;;;;;;8.87;7.97;;;17.20;96.20;;;;;;5072850;28;20428;-67
2021/08/12 02:15:49;;;;;;;9.30;6.93;;;17.20;96.30;;;;;;5072456;28;20511;-67
2021/08/12 02:18:21;;;;;;;9.00;6.80;;;17.20;96.50;;;;;;5072780;28;20444;-67
2021/08/12 02:20:51;;;;;;;8.90;7.20;;;17.20;96.30;;;;;;5072429;28;20451;-67
2021/08/12 02:23:24;;;;;;;13.60;8.67;;;17.20;96.40;;;;;;5072743;28;20452;-67
2021/08/12 02:26:04;;;;;;;17.60;8.10;;;17.10;96.40;;;;;;5072298;28;20840;-67
2021/08/12 02:28:34;;;;;;;13.37;8.60;;;17.10;96.60;;;;;;5072875;28;20431;-67
2021/08/12 02:31:12;;;;;;;9.20;8.00;;;17.10;96.80;;;;;;5072164;28;21017;-67
2021/08/12 02:33:40;;;;;;;9.53;8.53;;;17.10;96.80;;;;;;5072155;28;20490;-67
2021/08/12 02:36:10;;;;;;;12.20;8.07;;;17.10;96.90;;;;;;5072592;28;20479;-67
2021/08/12 02:38:42;;;;;;;10.37;8.70;;;17.10;96.80;;;;;;5072108;28;20436;-69
2021/08/12 02:41:17;;;;;;;11.73;9.70;;;17.20;96.60;;;;;;5072722;28;20543;-67
2021/08/12 02:43:45;;;;;;;9.60;7.57;;;17.10;96.50;;;;;;5072184;28;20978;-68
2021/08/12 02:46:20;;;;;;;12.03;8.47;;;17.20;96.40;;;;;;5052488;28;20471;-67
2021/08/12 02:48:53;;;;;;;9.57;6.80;;;17.20;96.20;;;;;;5052767;28;20519;-70
2021/08/12 02:51:21;;;;;;;8.80;6.93;;;17.20;96.20;;;;;;5072490;28;20464;-67
2021/08/12 02:53:51;;;;;;;11.37;7.30;;;17.20;96.00;;;;;;5072542;28;20479;-69
2021/08/12 02:56:18;;;;;;;9.20;6.43;;;17.20;96.10;;;;;;5056304;28;21033;-67
2021/08/12 02:58:48;;;;;;;7.10;6.40;;;17.10;95.80;;;;;;5059703;28;20428;-67
2021/08/12 03:01:17;;;;;;;9.93;6.80;;;17.10;95.60;;;;;;5076561;28;20471;-67
2021/08/12 03:03:46;;;;;;;8.37;6.00;;;17.10;95.60;;;;;;5076199;28;20513;-67
2021/08/12 03:06:18;;;;;;;9.37;6.30;;;17.10;95.60;;;;;;5076421;28;20444;-67
2021/08/12 03:08:46;;;;;;;6.87;6.17;;;17.10;95.70;;;;;;5075879;28;20432;-67
2021/08/12 03:11:17;;;;;;;5.90;4.90;;;17.10;95.70;;;;;;5076164;28;20446;-67
2021/08/12 03:13:45;;;;;;;6.27;5.13;;;17.10;95.60;;;;;;5076062;28;20497;-67
2021/08/12 03:16:14;;;;;;;7.73;6.30;;;17.00;95.30;;;;;;5076242;28;20475;-67
2021/08/12 03:18:44;;;;;;;8.77;5.67;;;17.00;95.30;;;;;;5075778;28;20527;-69
2021/08/12 03:21:13;;;;;;;6.60;6.00;;;16.90;95.20;;;;;;5056255;28;20780;-67
2021/08/12 03:23:44;;;;;;;9.37;5.70;;;17.00;95.20;;;;;;5060061;28;20455;-66
2021/08/12 03:26:18;;;;;;;13.60;7.60;;;16.90;95.20;;;;;;5075958;28;20534;-67
2021/08/12 03:28:47;;;;;;;8.70;6.03;;;16.90;95.50;;;;;;5075412;28;20463;-67
2021/08/12 03:31:16;;;;;;;10.00;7.37;;;16.80;95.80;;;;;;5075764;28;20461;-67
2021/08/12 03:33:44;;;;;;;7.50;6.77;;;16.80;95.90;;;;;;5075424;28;20567;-67
2021/08/12 03:36:12;;;;;;;7.20;6.03;;;16.80;95.90;;;;;;5075598;28;20483;-67
2021/08/12 03:38:39;;;;;;;7.17;6.10;;;16.70;96.00;;;;;;5075224;28;20817;-67
2021/08/12 03:41:09;;;;;;;7.47;5.70;;;16.70;96.20;;;;;;5075710;28;20479;-67
2021/08/12 03:43:40;;;;;;;5.70;4.93;;;16.70;96.30;;;;;;5074957;28;20478;-67
2021/08/12 03:46:08;;;;;;;6.47;5.47;;;16.70;96.00;;;;;;5074840;28;20523;-68
2021/08/12 03:48:36;;;;;;;7.40;5.67;;;16.70;96.10;;;;;;5075578;28;20967;-67
2021/08/12 03:51:08;;;;;;;7.50;5.37;;;16.70;95.90;;;;;;5075459;28;20471;-68
2021/08/12 03:53:35;;;;;;;6.37;5.37;;;16.70;95.80;;;;;;5055185;28;20433;-69
2021/08/12 03:56:04;;;;;;;7.30;6.17;;;16.70;95.90;;;;;;5055711;28;20584;-67
2021/08/12 03:58:33;;;;;;;8.10;5.80;;;16.70;95.70;;;;;;5074883;28;20811;-66
2021/08/12 04:01:06;;;;;;;5.63;4.60;;;16.60;95.70;;;;;;5075838;28;20819;-67
2021/08/12 04:03:34;;;;;;;7.60;5.47;;;16.60;95.70;;;;;;5075195;28;20439;-67
2021/08/12 04:06:02;;;;;;;9.00;5.67;;;16.60;95.80;;;;;;5074973;28;20489;-67
2021/08/12 04:08:31;;;;;;;7.80;5.97;;;16.60;95.60;;;;;;5074931;28;20460;-67
2021/08/12 04:11:02;;;;;;;5.70;4.50;;;16.60;95.70;;;;;;5075226;28;20498;-67
2021/08/12 04:13:32;;;;;;;7.10;6.20;;;16.60;95.80;;;;;;5074496;28;20432;-67
2021/08/12 04:16:00;;;;;;;6.77;5.70;;;16.50;95.70;;;;;;5075341;28;21060;-67
2021/08/12 04:18:34;;;;;;;6.93;5.53;;;16.40;95.80;;;;;;5074590;28;20471;-67
2021/08/12 04:21:05;;;;;;;8.40;6.00;;;16.40;95.90;;;;;;5075285;28;21004;-67
2021/08/12 04:23:33;;;;;;;9.90;6.43;;;16.40;96.00;;;;;;5074526;28;20444;-66
2021/08/12 04:26:01;;;;;;;6.60;5.80;;;16.40;95.90;;;;;;5075098;28;20522;-67
2021/08/12 04:28:28;;;;;;;6.47;5.03;;;16.40;95.80;;;;;;5074584;28;20791;-67
2021/08/12 04:30:55;;;;;;;7.20;5.60;;;16.40;96.00;;;;;;5074339;28;20439;-67
2021/08/12 04:33:22;;;;;;;12.17;6.20;;;16.40;96.20;;;;;;5073258;28;20515;-67
2021/08/12 04:35:51;;;;;;;8.37;7.27;;;16.40;96.70;;;;;;5073045;28;21004;-67
2021/08/12 04:38:19;;;;;;;8.80;6.53;;;16.30;97.00;;;;;;5074540;28;20479;-67
2021/08/12 04:40:46;;;;;;;7.63;6.37;;;16.40;97.20;;;;;;5075010;28;20970;-67
2021/08/12 04:43:19;;;;;;;10.27;6.67;;;16.40;97.20;;;;;;5074004;28;20439;-69
2021/08/12 04:45:47;;;;;;;12.33;7.50;;;16.40;97.60;;;;;;5054812;28;20546;-67
2021/08/12 04:48:15;;;;;;;8.13;5.70;;;16.50;97.80;;;;;;5063574;28;20436;-67
2021/08/12 04:50:43;;;;;;;8.70;6.40;;;16.50;97.70;;;;;;5074089;28;20467;-67
2021/08/12 04:53:17;;;;;;;6.40;5.13;;;16.60;97.50;;;;;;5069553;28;20532;-67
2021/08/12 04:55:49;;;;;;;7.63;5.63;;;16.60;97.10;;;;;;5072568;28;20589;-69
2021/08/12 04:58:17;;;;;;;7.40;5.90;;;16.60;97.30;;;;;;5072254;28;20527;-68
2021/08/12 05:00:47;;;;;;;9.60;6.30;;;16.60;97.40;;;;;;5073006;28;20468;-67
2021/08/12 05:03:19;;;;;;;8.23;6.60;;;16.70;97.60;;;;;;5071515;28;20428;-67
2021/08/12 05:06:00;;;;;;;9.63;6.40;;;16.70;97.60;;;;;;5072488;28;20956;-67
2021/08/12 05:08:28;;;;;;;9.10;6.00;;;16.80;97.70;;;;;;5072773;28;20432;-67
2021/08/12 05:10:55;;;;;;;6.33;5.30;;;16.90;97.70;;;;;;5070966;28;20509;-67
2021/08/12 05:13:27;;;;;;;9.13;5.90;;;16.90;97.50;;;;;;5072580;28;20451;-67
2021/08/12 05:15:57;;;;;;;6.73;6.03;;;17.00;97.50;;;;;;5071731;28;20540;-67
2021/08/12 05:18:30;;;;;;;10.07;7.20;;;17.00;97.80;;;;;;5071550;28;20476;-67
2021/08/12 05:21:00;;;;;;;12.97;7.03;;;17.10;98.10;;;;;;5072113;28;20483;-67
2021/08/12 05:23:29;;;;;;;13.23;8.73;;;17.20;98.00;;;;;;5067804;28;20523;-67
2021/08/12 05:25:56;;;;;;;13.00;8.40;;;17.30;98.10;;;;;;5070938;28;20490;-67
2021/08/12 05:28:23;;;;;;;11.50;7.70;;;17.40;98.00;;;;;;5071396;28;20876;-67
2021/08/12 05:30:50;;;;;;;11.80;7.57;;;17.40;98.00;;;;;;5069695;28;20497;-68
2021/08/12 05:33:36;;;;;;;9.63;8.63;;;17.50;98.00;;;;;;5070907;28;20475;-67
2021/08/12 05:36:05;;;;;;;11.63;8.17;;;17.60;98.10;;;;;;5070123;28;20476;-68
2021/08/12 05:38:35;;;;;;;9.17;7.20;;;17.70;98.20;;;;;;5069514;28;20436;-67
2021/08/12 05:41:02;;;;;;;11.37;8.93;;;17.70;98.30;;;;;;5071151;28;20922;-67
2021/08/12 05:43:33;;;;;;;12.23;8.73;;;17.80;98.40;;;;;;5070124;28;20515;-68
2021/08/12 05:46:03;;;;;;;8.50;7.57;;;17.90;98.40;;;;;;5067900;28;20519;-67
2021/08/12 05:48:32;;;;;;;9.13;7.73;;;18.00;98.50;;;;;;5068735;28;20519;-67
2021/08/12 05:51:02;;;;;;;9.73;7.03;;;18.10;98.50;;;;;;5070022;28;20865;-69
2021/08/12 05:53:33;;;;;;;12.30;8.67;;;18.10;98.40;;;;;;5068196;28;20519;-66
2021/08/12 05:56:06;;;;;;;10.77;8.87;;;18.20;98.50;;;;;;5070129;28;20472;-66
2021/08/12 05:58:37;;;;;;;12.17;8.93;;;18.30;98.40;;;;;;5069660;28;20938;-67
2021/08/12 06:01:09;;;;;;;10.40;8.33;;;18.40;98.40;;;;;;5069115;28;20448;-67
2021/08/12 06:03:36;;;;;;;12.77;8.47;;;18.40;97.30;;;;;;5070261;28;20467;-67
2021/08/12 06:06:04;;;;;;;10.47;8.43;;;18.60;97.60;;;;;;5070063;28;20527;-68
2021/08/12 06:08:32;;;;;;;10.43;8.20;;;18.70;97.10;;;;;;5070087;28;20483;-67
2021/08/12 06:11:04;;;;;;;13.87;8.50;;;18.80;97.20;;;;;;5068848;28;20443;-67
2021/08/12 06:13:33;;;;;;;11.33;8.37;;;18.90;97.40;;;;;;5069474;28;20444;-67
2021/08/12 06:16:01;;;;;;;10.30;8.60;;;19.00;97.40;;;;;;5069679;28;20480;-67
2021/08/12 06:18:29;;;;;;;10.00;6.97;;;19.20;97.10;;;;;;5069901;28;20438;-67
2021/08/12 06:21:00;;;;;;;11.40;8.60;;;19.20;96.60;;;;;;5069426;28;20444;-68
2021/08/12 06:23:28;;;;;;;9.40;7.17;;;19.30;96.40;;;;;;5068658;28;20493;-71
2021/08/12 06:25:58;;;;;;;12.97;8.57;;;19.40;96.00;;;;;;5069140;28;20502;-68
2021/08/12 06:28:32;;;;;;;11.60;7.30;;;19.60;96.10;;;;;;5069287;28;20513;-67
2021/08/12 06:30:59;;;;;;;10.80;7.77;;;19.70;95.90;;;;;;5068260;28;20467;-67
2021/08/12 06:33:27;;;;;;;9.63;8.50;;;19.80;95.80;;;;;;5068458;28;20843;-67
2021/08/12 06:35:54;;;;;;;10.13;7.40;;;19.90;95.60;;;;;;5069676;28;20594;-68
2021/08/12 06:38:22;;;;;;;8.77;7.23;;;20.00;95.50;;;;;;5069733;28;20934;-67
2021/08/12 06:40:49;;;;;;;10.70;6.80;;;20.10;95.40;;;;;;5069524;28;20520;-67
2021/08/12 06:43:25;;;;;;;8.97;7.33;;;20.20;94.80;;;;;;5069106;28;20475;-67
2021/08/12 06:45:53;;;;;;;9.43;8.07;;;20.30;94.60;;;;;;5067499;28;20431;-67
2021/08/12 06:48:22;;;;;;;7.77;7.00;;;20.40;94.20;;;;;;5068258;28;20878;-67
2021/08/12 06:50:49;;;;;;;8.60;7.63;;;20.40;94.00;;;;;;5070401;28;20432;-67
2021/08/12 06:53:17;;;;;;;8.20;7.37;;;20.50;93.80;;;;;;5070739;28;20523;-67
2021/08/12 06:55:45;;;;;;;8.67;7.07;;;20.50;93.40;;;;;;5070843;28;20529;-67
2021/08/12 06:58:12;;;;;;;10.40;7.67;;;20.70;93.50;;;;;;5071370;28;20464;-67
2021/08/12 07:00:41;;;;;;;12.57;7.80;;;20.70;93.00;;;;;;5070814;28;20440;-69
2021/08/12 07:03:10;;;;;;;9.67;8.67;;;20.80;93.20;;;;;;5064736;28;20524;-68
2021/08/12 07:05:37;;;;;;;11.70;8.00;;;21.00;93.50;;;;;;5070729;28;20486;-68
2021/08/12 07:08:08;;;;;;;9.23;7.70;;;21.10;93.50;;;;;;5070705;28;20519;-68
2021/08/12 07:10:39;;;;;;;10.73;7.43;;;21.30;92.50;;;;;;5072674;28;20456;-69
2021/08/12 07:13:08;;;;;;;9.60;7.73;;;21.40;92.00;;;;;;5072445;28;20523;-68
2021/08/12 07:15:35;;;;;;;12.53;8.27;;;21.50;92.10;;;;;;5072527;28;20440;-68
2021/08/12 07:18:02;;;;;;;10.57;7.80;;;21.70;92.10;;;;;;5072292;28;20440;-68
2021/08/12 07:20:35;;;;;;;9.40;7.73;;;21.80;92.10;;;;;;5072510;28;20519;-67
2021/08/12 07:23:03;;;;;;;9.50;7.30;;;22.00;91.80;;;;;;5072813;28;20440;-68
2021/08/12 07:25:30;;;;;;;8.83;7.93;;;22.10;91.00;;;;;;5072581;28;20922;-68
2021/08/12 07:27:57;;;;;;;9.33;7.53;;;22.30;90.30;;;;;;5072497;28;20468;-68
2021/08/12 07:30:25;;;;;;;14.87;7.97;;;22.40;90.50;;;;;;5072560;28;20811;-67
2021/08/12 07:32:52;;;;;;;9.30;7.20;;;22.50;90.40;;;;;;5072392;28;20486;-67
2021/08/12 07:35:21;;;;;;;11.70;8.03;;;22.60;89.30;;;;;;5072467;28;20858;-67
2021/08/12 07:37:50;;;;;;;12.23;8.10;;;22.70;89.70;;;;;;5072469;28;20487;-69
2021/08/12 07:40:17;;;;;;;9.77;7.07;;;22.90;90.20;;;;;;5072918;28;20775;-67
2021/08/12 07:42:44;;;;;;;8.80;7.10;;;23.10;90.40;;;;;;5075660;28;20479;-68
2021/08/12 07:45:12;;;;;;;8.60;6.60;;;23.30;90.60;;;;;;5075760;28;20448;-68
2021/08/12 07:47:39;;;;;;;8.50;7.10;;;23.40;90.20;;;;;;5076062;28;20511;-68
2021/08/12 07:50:10;;;;;;;7.87;6.90;;;23.60;89.80;;;;;;5075705;28;20443;-68
2021/08/12 07:52:39;;;;;;;9.00;7.20;;;23.80;89.00;;;;;;5075719;28;20489;-68
2021/08/12 07:55:10;;;;;;;8.80;7.40;;;24.00;88.30;;;;;;5075654;28;20436;-68
2021/08/12 07:57:37;;;;;;;11.17;6.83;;;24.20;87.60;;;;;;5075570;28;20553;-68
2021/08/12 08:00:07;;;;;;;9.87;6.83;;;24.40;86.60;;;;;;5075584;28;20484;-68
2021/08/12 08:02:44;;;;;;;10.40;7.57;;;24.60;86.80;;;;;;5075527;28;20476;-68
2021/08/12 08:05:15;;;;;;;10.70;7.40;;;24.70;84.40;;;;;;5075843;28;20527;-69
2021/08/12 08:07:42;;;;;;;8.40;6.63;;;24.90;85.20;;;;;;5075752;28;20435;-69
2021/08/12 08:10:11;;;;;;;7.80;7.00;;;25.00;86.20;;;;;;5075550;28;20533;-68
2021/08/12 08:12:40;;;;;;;8.20;7.13;;;25.20;85.80;;;;;;5075696;28;20441;-68
2021/08/12 08:15:08;;;;;;;8.87;6.07;;;25.40;84.00;;;;;;5075210;28;20458;-68
2021/08/12 08:17:38;;;;;;;7.70;6.83;;;25.50;80.20;;;;;;5075409;28;20565;-71
2021/08/12 08:20:12;;;;;;;11.43;7.67;;;25.60;81.60;;;;;;5075562;28;20475;-69
2021/08/12 08:22:44;;;;;;;12.00;6.90;;;25.80;82.10;;;;;;5075314;28;20521;-68
2021/08/12 08:25:16;;;;;;;11.00;6.53;;;26.00;80.90;;;;;;5075039;28;20474;-68
2021/08/12 08:27:43;;;;;;;7.70;6.83;;;26.10;78.60;;;;;;5074771;28;20468;-67
2021/08/12 08:30:19;;;;;;;7.37;6.67;;;26.20;79.30;;;;;;5075036;28;20528;-68
2021/08/12 08:32:46;;;;;;;12.33;7.07;;;26.30;78.60;;;;;;5075122;28;20438;-68
2021/08/12 08:35:17;;;;;;;8.80;7.10;;;26.30;77.80;;;;;;5075110;28;20549;-68
2021/08/12 08:37:44;;;;;;;8.90;7.37;;;26.30;78.40;;;;;;5074942;28;20560;-69
2021/08/12 08:40:13;;;;;;;8.67;7.00;;;26.40;79.10;;;;;;5074738;28;20463;-73
2021/08/12 08:42:40;;;;;;;8.50;7.00;;;26.60;79.90;;;;;;5074834;28;20455;-69
2021/08/12 08:45:08;;;;;;;9.87;7.03;;;26.80;79.80;;;;;;5074946;28;20548;-70
2021/08/12 08:47:36;;;;;;;7.90;7.10;;;27.00;79.20;;;;;;5075117;28;20534;-68
2021/08/12 08:50:04;;;;;;;9.13;6.00;;;27.20;78.80;;;;;;5074867;28;20471;-68
2021/08/12 08:52:32;;;;;;;8.13;6.10;;;27.40;77.40;;;;;;5074675;28;20514;-68
2021/08/12 08:55:03;;;;;;;10.50;7.10;;;27.50;75.40;;;;;;5074817;28;20468;-68
2021/08/12 08:57:32;;;;;;;7.37;6.60;;;27.60;75.60;;;;;;5074632;28;20566;-67
2021/08/12 09:00:01;;;;;;;7.30;6.37;;;27.80;72.60;;;;;;5074473;28;20432;-67
2021/08/12 09:02:29;;;;;;;8.80;7.07;;;27.80;70.00;;;;;;5074271;28;20471;-68
2021/08/12 09:04:58;;;;;;;8.17;6.63;;;27.90;70.10;;;;;;5074483;28;20828;-67
2021/08/12 09:07:25;;;;;;;9.90;6.43;;;28.00;68.90;;;;;;5074206;28;20510;-67
2021/08/12 09:09:52;;;;;;;7.23;6.37;;;28.10;65.00;;;;;;5074409;28;20939;-68
2021/08/12 09:12:24;;;;;;;7.50;6.50;;;28.20;67.50;;;;;;5074269;28;20513;-67
2021/08/12 09:15:08;;;;;;;6.60;5.90;;;28.40;66.10;;;;;;5074429;28;20432;-68
2021/08/12 09:17:39;;;;;;;8.03;6.03;;;28.50;64.90;;;;;;5074085;28;20487;-68
2021/08/12 09:20:09;;;;;;;6.50;5.50;;;28.60;65.00;;;;;;5074216;28;20531;-67
2021/08/12 09:22:49;;;;;;;5.90;4.97;;;28.70;67.30;;;;;;5074244;28;20471;-68
2021/08/12 09:25:17;;;;;;;9.93;6.23;;;28.80;62.70;;;;;;5074049;28;20788;-68
2021/08/12 09:27:44;;;;;;;7.10;6.37;;;28.90;63.30;;;;;;5073697;28;20510;-68
2021/08/12 09:30:15;;;;;;;9.03;6.40;;;29.00;62.50;;;;;;5073990;28;20508;-68
2021/08/12 09:32:47;;;;;;;6.70;6.00;;;29.20;61.50;;;;;;5073872;28;20492;-68
2021/08/12 09:35:22;;;;;;;6.73;5.73;;;29.20;58.70;;;;;;5073705;28;20444;-68
2021/08/12 09:38:06;;;;;;;7.17;6.47;;;29.30;58.70;;;;;;5073785;28;20486;-68
2021/08/12 09:40:33;;;;;;;7.30;6.50;;;29.40;57.80;;;;;;5074113;28;20473;-68
2021/08/12 09:43:18;;;;;;;9.47;5.90;;;29.50;56.90;;;;;;5073823;28;20488;-67
2021/08/12 09:45:55;;;;;;;11.23;6.00;;;29.60;57.60;;;;;;5073755;28;20824;-68
2021/08/12 09:48:23;;;;;;;10.60;6.60;;;29.60;56.70;;;;;;5073766;28;20507;-68
2021/08/12 09:51:03;;;;;;;8.00;6.70;;;29.70;56.20;;;;;;5073502;28;20439;-68
2021/08/12 09:53:30;;;;;;;7.80;5.80;;;29.70;57.60;;;;;;5073791;28;20436;-68
2021/08/12 09:56:07;;;;;;;8.40;6.20;;;29.90;57.80;;;;;;5073499;28;20498;-68
2021/08/12 09:58:35;;;;;;;7.20;6.47;;;30.00;57.30;;;;;;5073378;28;20479;-68
2021/08/12 10:01:17;;;;;;;7.50;6.70;;;30.10;56.60;;;;;;5073538;28;20436;-68
2021/08/12 10:03:45;;;;;;;10.77;6.73;;;30.20;56.30;;;;;;5072683;28;20443;-68
2021/08/12 10:06:19;;;;;;;12.20;6.30;;;30.30;56.80;;;;;;5073448;28;20444;-69
2021/08/12 10:08:46;;;;;;;8.70;7.00;;;30.50;56.90;;;;;;5073351;28;20444;-68
2021/08/12 10:11:19;;;;;;;7.90;7.10;;;30.60;56.20;;;;;;5073272;28;20523;-67
2021/08/12 10:13:46;;;;;;;9.03;6.70;;;30.60;55.90;;;;;;5073363;28;20436;-68
2021/08/12 10:16:17;;;;;;;7.17;6.43;;;30.70;55.00;;;;;;5073339;28;20966;-69
2021/08/12 10:18:45;;;;;;;7.60;6.43;;;30.80;55.40;;;;;;5073263;28;20486;-68
2021/08/12 10:21:14;;;;;;;9.23;6.73;;;30.90;54.00;;;;;;5073321;28;20478;-69
2021/08/12 10:23:42;;;;;;;8.50;5.90;;;31.00;55.00;;;;;;5073318;28;20424;-68
2021/08/12 10:26:09;;;;;;;7.00;5.93;;;31.00;52.90;;;;;;5072879;28;20472;-68
2021/08/12 10:28:39;;;;;;;7.33;6.07;;;31.00;52.00;;;;;;5073300;28;20535;-68
2021/08/12 10:31:07;;;;;;;8.60;6.83;;;31.10;52.30;;;;;;5073266;28;20513;-69
2021/08/12 10:33:36;;;;;;;10.40;6.07;;;31.20;53.30;;;;;;5073355;28;20431;-69
2021/08/12 10:36:04;;;;;;;7.60;6.47;;;31.30;50.40;;;;;;5073171;28;20918;-69
2021/08/12 10:38:31;;;;;;;8.50;7.60;;;31.30;51.00;;;;;;5072919;28;20973;-68
2021/08/12 10:40:58;;;;;;;7.97;6.47;;;31.40;51.30;;;;;;5073092;28;20527;-67
2021/08/12 10:43:28;;;;;;;8.17;6.37;;;31.50;51.40;;;;;;5073186;28;20448;-68
2021/08/12 10:45:56;;;;;;;7.40;6.27;;;31.60;51.70;;;;;;5073132;28;20773;-68
2021/08/12 10:48:25;;;;;;;9.30;7.13;;;31.80;51.60;;;;;;5073050;28;21010;-69
2021/08/12 10:51:10;;;;;;;7.93;6.93;;;31.90;52.00;;;;;;5072980;28;20993;-69
2021/08/12 10:53:40;;;;;;;7.20;5.87;;;31.90;51.20;;;;;;5072886;28;20558;-68
2021/08/12 10:56:15;;;;;;;7.13;6.30;;;32.00;50.50;;;;;;5072973;28;20539;-68
2021/08/12 10:58:47;;;;;;;7.17;6.47;;;32.00;51.90;;;;;;5072606;28;20881;-68
2021/08/12 11:01:27;;;;;;;6.50;5.70;;;32.00;51.60;;;;;;5072985;28;20515;-68
2021/08/12 11:03:58;;;;;;;7.40;6.53;;;32.10;51.70;;;;;;5072835;28;20531;-68
2021/08/12 11:06:43;;;;;;;7.87;6.23;;;32.10;52.00;;;;;;5072716;28;20444;-68
2021/08/12 11:09:16;;;;;;;7.27;6.43;;;32.20;50.70;;;;;;5072813;28;20431;-69
2021/08/12 11:12:06;;;;;;;7.00;6.00;;;32.20;50.70;;;;;;5072649;28;20439;-68
2021/08/12 11:14:57;;;;;;;9.20;5.67;;;32.30;49.50;;;;;;5072299;28;20436;-68
2021/08/12 11:17:25;;;;;;;13.73;8.10;;;32.40;49.00;;;;;;5076178;28;20532;-68
2021/08/12 11:19:57;;;;;;;10.03;6.77;;;32.40;50.00;;;;;;5076313;28;20858;-68
2021/08/12 11:22:43;;;;;;;7.50;6.70;;;32.60;50.70;;;;;;5075836;28;20846;-68
2021/08/12 11:25:11;;;;;;;7.47;6.27;;;32.70;51.60;;;;;;5056640;28;20475;-69
2021/08/12 11:27:43;;;;;;;7.63;5.87;;;32.80;50.60;;;;;;5057794;28;21045;-68
2021/08/12 11:30:36;;;;;;;8.43;6.13;;;32.90;51.00;;;;;;5073386;28;20455;-71
2021/08/12 11:33:43;;;;;;;7.87;6.73;;;33.00;50.50;;;;;;5075175;28;20865;-68
2021/08/12 11:36:19;;;;;;;9.13;6.03;;;33.10;50.10;;;;;;5056915;28;20852;-69
2021/08/12 11:39:01;;;;;;;8.00;6.70;;;33.30;48.80;;;;;;5075281;28;20908;-68
2021/08/12 11:41:35;;;;;;;8.77;5.87;;;33.20;47.90;;;;;;5076208;28;20995;-68
2021/08/12 11:44:03;;;;;;;7.43;6.73;;;33.30;48.90;;;;;;5075305;28;20764;-68
2021/08/12 11:46:36;;;;;;;7.07;6.17;;;33.30;46.90;;;;;;5075857;28;20471;-70
2021/08/12 11:49:03;;;;;;;9.60;5.87;;;33.30;45.60;;;;;;5075149;28;20511;-68
2021/08/12 11:51:32;;;;;;;9.90;6.37;;;33.30;45.40;;;;;;5075477;28;20432;-69
2021/08/12 11:54:01;;;;;;;8.63;6.20;;;33.30;45.90;;;;;;5075387;28;20443;-68
2021/08/12 11:56:32;;;;;;;10.00;6.07;;;33.20;46.40;;;;;;5074940;28;20447;-68
2021/08/12 11:59:00;;;;;;;7.00;6.27;;;33.20;45.30;;;;;;5075341;28;20483;-68
2021/08/12 12:01:30;;;;;;;7.27;6.53;;;33.30;46.50;;;;;;5074758;28;20990;-69
2021/08/12 12:04:00;;;;;;;9.70;7.10;;;33.40;45.00;;;;;;5075120;28;20494;-68
2021/08/12 12:06:35;;;;;;;7.90;6.30;;;33.40;44.70;;;;;;5075592;28;20436;-68
2021/08/12 12:09:23;;;;;;;6.73;5.63;;;33.50;44.70;;;;;;5075703;28;20517;-68
2021/08/12 12:11:56;;;;;;;7.50;6.70;;;33.50;44.60;;;;;;5075854;28;20440;-68
2021/08/12 12:14:24;;;;;;;7.47;6.73;;;33.50;43.60;;;;;;5075520;28;20436;-68
2021/08/12 12:17:22;;;;;;;7.77;6.07;;;33.50;45.20;;;;;;5075507;28;20515;-68
2021/08/12 12:20:08;;;;;;;6.97;6.30;;;33.50;45.30;;;;;;5013380;28;20917;-68
2021/08/12 12:22:39;;;;;;;6.73;6.00;;;33.40;44.80;;;;;;5069927;28;20832;-68
2021/08/12 12:25:10;;;;;;;8.47;5.90;;;33.40;43.30;;;;;;5075636;28;20434;-68
2021/08/12 12:27:38;;;;;;;7.93;6.03;;;33.40;43.20;;;;;;5074416;28;20475;-68
2021/08/12 12:30:09;;;;;;;6.63;5.93;;;33.30;45.10;;;;;;5075150;28;20526;-70
2021/08/12 12:32:36;;;;;;;9.60;5.83;;;33.30;45.10;;;;;;5075252;28;20501;-69
2021/08/12 12:35:06;;;;;;;10.23;6.00;;;33.40;45.50;;;;;;5075051;28;20523;-70
2021/08/12 12:37:34;;;;;;;7.10;6.40;;;33.40;45.90;;;;;;5075058;28;20476;-68
2021/08/12 12:40:03;;;;;;;6.83;6.10;;;33.40;46.60;;;;;;5075315;28;20519;-68
2021/08/12 12:42:37;;;;;;;7.80;6.77;;;33.40;45.50;;;;;;5075148;28;20468;-68
2021/08/12 12:45:06;;;;;;;8.37;6.60;;;33.40;44.90;;;;;;5074771;28;20479;-70
2021/08/12 12:47:34;;;;;;;9.67;7.13;;;33.50;44.80;;;;;;5075207;28;20463;-68
2021/08/12 12:50:09;;;;;;;9.23;7.00;;;33.50;44.60;;;;;;5074987;28;20442;-68
2021/08/12 12:52:58;;;;;;;6.27;5.67;;;33.50;44.80;;;;;;5074975;28;20455;-68
2021/08/12 12:55:27;;;;;;;8.27;7.27;;;33.50;46.90;;;;;;5074963;28;20464;-68
2021/08/12 12:58:01;;;;;;;6.67;5.97;;;33.50;46.30;;;;;;5074771;28;20526;-68
2021/08/12 13:00:30;;;;;;;10.00;6.90;;;33.40;45.90;;;;;;5074876;28;20440;-68
2021/08/12 13:02:58;;;;;;;8.93;6.07;;;33.50;46.00;;;;;;5074667;28;20468;-68